Strasburg, North Dakota
Current Conditions -  °F | °C
As of 12:35 PM on Sunday 23 Nov 2014 (Local Time) from K7L2 Reporting Station
Overcast Overcast  
Wind Chill: 13°   Ceiling: 2900
Heat Index: 28°   Visibility: 10mi
Dew Point: 19°   Wind: 29mph
Humidity: 69%   Direction: 310°NW
Pressure: 29.57"   Gusts: 35mph
Location:  46.13°N, 100.16°W
Report Text: K7L2 231835Z AUTO 31025G30KT 10SM OVC029 M02/M07 A2957 RMK AO2
Loading
Personal Weather Stations






























Interactive Weather Map New forecast layout! Learn more

10-Day Weather Forecast

Advertisements
Track Severe Weather on mobile